createdAt,value
2023-01-05T00:01:50.605Z,12.40
2023-01-05T00:04:19.459Z,12.40
2023-01-05T00:06:48.062Z,12.40
2023-01-05T00:09:18.923Z,12.40
2023-01-05T00:12:15.898Z,12.40
2023-01-05T00:15:03.873Z,12.40
2023-01-05T00:17:50.493Z,12.40
2023-01-05T00:20:39.300Z,12.40
2023-01-05T00:23:11.461Z,12.40
2023-01-05T00:25:42.791Z,12.30
2023-01-05T00:28:13.162Z,12.30
2023-01-05T00:30:44.656Z,12.30
2023-01-05T00:33:16.427Z,12.20
2023-01-05T00:35:48.004Z,12.20
2023-01-05T00:38:17.105Z,12.20
2023-01-05T00:40:49.141Z,12.20
2023-01-05T00:43:18.160Z,12.20
2023-01-05T00:45:49.099Z,12.20
2023-01-05T00:48:18.540Z,12.20
2023-01-05T00:50:52.981Z,12.10
2023-01-05T00:53:23.867Z,12.10
2023-01-05T00:55:59.127Z,12.10
2023-01-05T00:58:28.535Z,12.10
2023-01-05T01:01:04.713Z,12.10
2023-01-05T01:03:35.223Z,12.10
2023-01-05T01:06:04.087Z,12.10
2023-01-05T01:08:33.282Z,11.90
2023-01-05T01:11:06.809Z,11.80
2023-01-05T01:13:35.892Z,11.70
2023-01-05T01:16:10.887Z,11.70
2023-01-05T01:18:43.054Z,11.70
2023-01-05T01:21:13.924Z,11.80
2023-01-05T01:23:43.444Z,11.80
2023-01-05T01:26:15.463Z,11.70
2023-01-05T01:28:57.202Z,11.80
2023-01-05T01:31:28.132Z,11.80
2023-01-05T01:34:00.148Z,11.80
2023-01-05T01:36:31.945Z,11.80
2023-01-05T01:39:12.377Z,11.80
2023-01-05T01:41:47.875Z,11.80
2023-01-05T01:44:52.464Z,11.80
2023-01-05T01:47:33.228Z,11.80
2023-01-05T01:50:08.295Z,11.80
2023-01-05T01:52:44.696Z,11.80
2023-01-05T01:55:16.118Z,11.80
2023-01-05T01:57:47.394Z,11.80
2023-01-05T02:00:25.478Z,11.70
2023-01-05T02:02:59.505Z,11.70
2023-01-05T02:05:41.558Z,11.70
2023-01-05T02:08:17.057Z,11.70
2023-01-05T02:11:23.724Z,11.70
2023-01-05T02:14:18.987Z,11.70
2023-01-05T02:17:05.586Z,11.60
2023-01-05T02:20:10.772Z,11.70
2023-01-05T02:23:15.162Z,11.70
2023-01-05T02:26:20.339Z,11.70
2023-01-05T02:29:29.116Z,11.70
2023-01-05T02:32:19.341Z,11.70
2023-01-05T02:35:06.785Z,11.70
2023-01-05T02:37:43.586Z,11.70
2023-01-05T02:40:22.620Z,11.70
2023-01-05T02:42:55.943Z,11.70
2023-01-05T02:45:26.292Z,11.70
2023-01-05T02:48:01.582Z,11.70
2023-01-05T02:50:38.985Z,11.70
2023-01-05T02:53:19.102Z,11.70
2023-01-05T02:55:53.463Z,11.60
2023-01-05T02:58:32.018Z,11.60
2023-01-05T03:01:09.497Z,11.60
2023-01-05T03:03:45.691Z,11.60
2023-01-05T03:06:28.296Z,11.60
2023-01-05T03:09:00.640Z,11.50
2023-01-05T03:11:54.906Z,11.50
2023-01-05T03:14:32.589Z,11.50
2023-01-05T03:17:05.880Z,11.50
2023-01-05T03:19:40.838Z,11.50
2023-01-05T03:22:37.771Z,11.50
2023-01-05T03:25:27.205Z,11.50
2023-01-05T03:28:15.141Z,11.50
2023-01-05T03:31:10.764Z,11.50
2023-01-05T03:34:05.073Z,11.50
2023-01-05T03:36:44.047Z,11.50
2023-01-05T03:39:15.196Z,11.50
2023-01-05T03:41:49.581Z,11.50
2023-01-05T03:44:23.902Z,11.50
2023-01-05T03:46:57.155Z,11.40
2023-01-05T03:49:28.604Z,11.30
2023-01-05T03:52:18.986Z,11.20
2023-01-05T03:54:58.504Z,11.10
2023-01-05T03:57:45.045Z,11.10
2023-01-05T04:00:19.500Z,11.00
2023-01-05T04:02:56.245Z,11.00
2023-01-05T04:05:49.405Z,11.00
2023-01-05T04:08:24.896Z,11.00
2023-01-05T04:11:01.181Z,11.10
2023-01-05T04:13:38.053Z,11.10
2023-01-05T04:16:21.816Z,11.20
2023-01-05T04:18:52.968Z,11.30
2023-01-05T04:21:25.258Z,11.10
2023-01-05T04:24:03.470Z,11.00
2023-01-05T04:26:48.840Z,10.80
2023-01-05T04:29:31.042Z,10.70
2023-01-05T04:32:05.310Z,10.70
2023-01-05T04:34:45.778Z,10.60
2023-01-05T04:37:24.092Z,10.50
2023-01-05T04:39:56.827Z,10.50
2023-01-05T04:42:29.929Z,10.40
2023-01-05T04:45:14.098Z,10.40
2023-01-05T04:47:49.815Z,10.30
2023-01-05T04:50:22.343Z,10.30
2023-01-05T04:52:52.577Z,10.30
2023-01-05T04:55:25.736Z,10.30
2023-01-05T04:57:57.041Z,10.30
2023-01-05T05:00:29.406Z,10.30
2023-01-05T05:02:58.923Z,10.30
2023-01-05T05:05:28.496Z,10.30
2023-01-05T05:07:59.025Z,10.30
2023-01-05T05:10:32.385Z,10.30
2023-01-05T05:13:02.699Z,10.40
2023-01-05T05:15:33.145Z,10.40
2023-01-05T05:18:09.443Z,10.40
2023-01-05T05:20:47.352Z,10.50
2023-01-05T05:23:22.628Z,10.40
2023-01-05T05:26:02.366Z,10.40
2023-01-05T05:28:32.048Z,10.40
2023-01-05T05:31:01.496Z,10.40
2023-01-05T05:33:31.544Z,10.30
2023-01-05T05:36:07.209Z,10.40
2023-01-05T05:38:37.636Z,10.30
2023-01-05T05:41:12.239Z,10.30
2023-01-05T05:43:44.317Z,10.40
2023-01-05T05:46:14.420Z,10.30
2023-01-05T05:48:44.658Z,10.40
2023-01-05T05:51:14.300Z,10.40
2023-01-05T05:53:43.752Z,10.40
2023-01-05T05:56:31.237Z,10.40
2023-01-05T06:13:15.892Z,10.20
2023-01-05T06:16:52.709Z,10.20
2023-01-05T06:20:40.492Z,10.20
2023-01-05T06:32:11.332Z,10.00
2023-01-05T06:35:07.930Z,10.00
2023-01-05T06:37:52.853Z,10.00
2023-01-05T06:40:29.741Z,10.00
2023-01-05T06:43:11.769Z,10.00
2023-01-05T06:46:05.137Z,9.90
2023-01-05T06:48:57.901Z,9.90
2023-01-05T06:52:02.955Z,9.90
2023-01-05T06:55:00.146Z,10.00
2023-01-05T07:02:42.888Z,10.00
2023-01-05T07:05:28.488Z,10.00
2023-01-05T07:08:20.829Z,9.90
2023-01-05T07:11:18.117Z,9.90
2023-01-05T07:14:16.505Z,9.90
2023-01-05T07:20:22.684Z,9.90
2023-01-05T07:26:52.681Z,9.90
2023-01-05T07:30:20.813Z,10.00
2023-01-05T07:33:23.706Z,10.00
2023-01-05T07:42:20.695Z,10.10
2023-01-05T08:00:21.430Z,10.10
2023-01-05T08:03:54.025Z,10.10
2023-01-05T08:06:57.522Z,10.20
2023-01-05T08:10:48.847Z,10.20
2023-01-05T08:13:42.983Z,10.20
2023-01-05T08:16:46.450Z,10.30
2023-01-05T08:19:38.430Z,10.30
2023-01-05T08:25:51.782Z,10.30
2023-01-05T08:28:33.038Z,10.20
2023-01-05T08:34:02.494Z,10.30
2023-01-05T08:36:44.284Z,10.30
2023-01-05T08:39:42.760Z,10.30
2023-01-05T08:42:19.482Z,10.30
2023-01-05T08:44:59.433Z,10.40
2023-01-05T08:56:39.323Z,10.40
2023-01-05T09:04:17.002Z,10.50
2023-01-05T09:07:09.580Z,10.50
2023-01-05T09:18:00.952Z,10.70
2023-01-05T09:21:17.531Z,10.70
2023-01-05T09:46:11.912Z,11.10
2023-01-05T09:48:59.039Z,11.20
2023-01-05T09:56:00.900Z,11.30
2023-01-05T09:58:35.526Z,11.20
2023-01-05T10:01:15.790Z,11.20
2023-01-05T10:04:03.668Z,11.20
2023-01-05T10:06:39.389Z,11.30
2023-01-05T10:09:14.417Z,11.30
2023-01-05T10:12:06.409Z,11.30
2023-01-05T10:14:43.967Z,11.30
2023-01-05T10:17:41.303Z,11.30
2023-01-05T10:20:35.454Z,11.40
2023-01-05T10:30:32.269Z,11.30
2023-01-05T10:33:40.367Z,11.30
2023-01-05T10:40:05.124Z,11.40
2023-01-05T10:43:14.892Z,11.50
2023-01-05T10:46:19.876Z,11.50
2023-01-05T10:48:47.564Z,11.60
2023-01-05T10:51:17.381Z,11.70
2023-01-05T10:53:47.277Z,11.70
2023-01-05T10:56:30.037Z,11.70
2023-01-05T10:59:10.524Z,11.80
2023-01-05T11:01:46.333Z,11.90
2023-01-05T11:04:36.421Z,11.90
2023-01-05T11:07:07.602Z,11.90
2023-01-05T11:09:45.393Z,11.80
2023-01-05T11:12:21.508Z,11.80
2023-01-05T11:14:58.481Z,11.80
2023-01-05T11:17:33.412Z,11.80
2023-01-05T11:20:06.937Z,11.90
2023-01-05T11:22:41.641Z,12.00
2023-01-05T11:25:37.744Z,11.90
2023-01-05T11:28:18.951Z,11.90
2023-01-05T11:31:05.021Z,11.80
2023-01-05T11:33:44.124Z,11.90
2023-01-05T11:36:41.494Z,11.90
2023-01-05T11:39:31.659Z,11.90
2023-01-05T11:42:25.081Z,12.00
2023-01-05T11:45:07.309Z,11.90
2023-01-05T11:47:51.974Z,11.90
2023-01-05T11:50:32.355Z,12.00
2023-01-05T11:53:09.645Z,12.10
2023-01-05T11:55:46.416Z,12.30
2023-01-05T11:58:30.893Z,12.40
2023-01-05T12:01:21.737Z,12.30
2023-01-05T12:07:43.825Z,12.20
2023-01-05T12:11:12.485Z,12.30
2023-01-05T12:14:25.313Z,12.20
2023-01-05T12:17:17.789Z,12.10
2023-01-05T12:20:11.956Z,12.00
2023-01-05T12:23:33.409Z,12.10
2023-01-05T12:26:28.014Z,12.00
2023-01-05T12:36:26.432Z,11.90
2023-01-05T12:42:51.155Z,11.90
2023-01-05T12:48:54.619Z,12.20
2023-01-05T12:51:34.009Z,12.40
2023-01-05T12:54:11.191Z,12.40
2023-01-05T12:56:46.389Z,12.40
2023-01-05T12:59:28.588Z,12.50
2023-01-05T13:02:07.773Z,12.80
2023-01-05T13:04:49.406Z,12.90
2023-01-05T13:07:27.396Z,12.70
2023-01-05T13:10:02.860Z,12.60
2023-01-05T13:12:37.241Z,12.70
2023-01-05T13:15:23.588Z,12.60
2023-01-05T13:17:55.453Z,12.50
2023-01-05T13:20:40.076Z,12.40
2023-01-05T13:23:16.243Z,12.30
2023-01-05T13:25:52.714Z,12.20
2023-01-05T13:28:25.992Z,12.20
2023-01-05T13:31:30.830Z,12.30
2023-01-05T13:34:15.591Z,12.60
2023-01-05T13:37:04.071Z,12.80
2023-01-05T13:39:54.388Z,13.40
2023-01-05T13:46:04.657Z,15.50
2023-01-05T13:49:03.801Z,14.80
2023-01-05T13:51:55.702Z,14.30
2023-01-05T13:54:49.271Z,14.00
2023-01-05T13:57:25.902Z,13.60
2023-01-05T14:00:06.439Z,13.40
2023-01-05T14:02:47.104Z,13.10
2023-01-05T14:05:27.623Z,12.90
2023-01-05T14:07:59.198Z,12.90
2023-01-05T14:10:31.290Z,12.90
2023-01-05T14:13:01.291Z,12.80
2023-01-05T14:15:39.463Z,12.70
2023-01-05T14:18:11.094Z,12.70
2023-01-05T14:20:47.137Z,12.70
2023-01-05T14:23:56.347Z,12.60
2023-01-05T14:27:07.573Z,12.70
2023-01-05T14:30:04.575Z,12.70
2023-01-05T14:32:37.001Z,12.60
2023-01-05T14:35:19.934Z,12.60
2023-01-05T14:37:58.491Z,12.60
2023-01-05T14:40:40.179Z,12.60
2023-01-05T14:43:23.146Z,12.50
2023-01-05T14:46:05.209Z,12.50
2023-01-05T14:48:36.063Z,12.40
2023-01-05T14:51:23.980Z,12.40
2023-01-05T14:53:56.126Z,12.30
2023-01-05T14:56:28.040Z,12.20
2023-01-05T14:59:03.559Z,12.20
2023-01-05T15:04:15.190Z,12.00
2023-01-05T15:07:02.813Z,11.90
2023-01-05T15:10:26.959Z,11.90
2023-01-05T15:13:40.988Z,11.80
2023-01-05T15:16:18.308Z,11.80
2023-01-05T15:19:20.638Z,11.70
2023-01-05T15:22:18.688Z,11.70
2023-01-05T15:25:30.424Z,11.60
2023-01-05T15:28:17.859Z,11.60
2023-01-05T15:31:10.830Z,11.50
2023-01-05T15:33:48.077Z,11.50
2023-01-05T15:36:28.925Z,11.50
2023-01-05T15:38:59.003Z,11.50
2023-01-05T15:41:30.987Z,11.40
2023-01-05T15:44:01.974Z,11.40
2023-01-05T15:46:36.624Z,11.30
2023-01-05T15:49:06.019Z,11.20
2023-01-05T15:51:39.016Z,11.20
2023-01-05T15:54:22.014Z,11.20
2023-01-05T16:02:38.649Z,11.10
2023-01-05T16:07:49.620Z,11.10
2023-01-05T20:53:00.416Z,10.90
2023-01-05T21:08:21.357Z,10.90
2023-01-05T21:10:55.115Z,10.90
2023-01-05T21:13:30.685Z,10.90
2023-01-05T21:16:03.075Z,10.90
2023-01-05T21:18:32.931Z,10.90
2023-01-05T21:21:01.735Z,10.90
2023-01-05T21:23:31.907Z,10.90
2023-01-05T21:26:07.544Z,10.90
2023-01-05T21:28:38.421Z,10.90
2023-01-05T21:31:08.337Z,10.90
2023-01-05T21:33:37.747Z,10.90
2023-01-05T21:36:07.743Z,10.90
2023-01-05T21:39:02.253Z,10.90
2023-01-05T21:41:40.425Z,10.90
2023-01-05T21:44:10.808Z,11.00
2023-01-05T21:46:39.999Z,11.00
2023-01-05T21:49:09.652Z,11.00
2023-01-05T21:51:55.643Z,11.00
2023-01-05T21:54:43.461Z,11.00
2023-01-05T21:57:15.130Z,11.00
2023-01-05T21:59:44.823Z,11.00
2023-01-05T22:02:15.373Z,11.00
2023-01-05T22:04:44.655Z,11.00
2023-01-05T22:07:13.532Z,11.10
2023-01-05T22:09:43.678Z,11.10
2023-01-05T22:12:12.544Z,11.10
2023-01-05T22:14:41.512Z,11.10
2023-01-05T22:17:10.914Z,11.10
2023-01-05T22:19:39.591Z,11.10
2023-01-05T22:22:08.376Z,11.10
2023-01-05T22:24:38.742Z,11.10
2023-01-05T22:27:08.779Z,11.10
2023-01-05T22:29:37.272Z,11.10
2023-01-05T22:36:21.321Z,11.00
2023-01-05T22:38:52.047Z,11.10
2023-01-05T22:41:23.031Z,11.10
2023-01-05T22:43:55.634Z,11.10
2023-01-05T22:46:26.528Z,11.10
2023-01-05T22:48:56.972Z,11.10
2023-01-05T22:51:28.127Z,11.20
2023-01-05T22:53:57.494Z,11.10
2023-01-05T22:56:31.147Z,11.10
2023-01-05T22:59:03.150Z,11.10
2023-01-05T23:01:36.124Z,11.10
2023-01-05T23:04:06.836Z,11.20
2023-01-05T23:06:36.383Z,11.20
2023-01-05T23:09:07.328Z,11.20
2023-01-05T23:11:38.759Z,11.20
2023-01-05T23:14:11.599Z,11.20
2023-01-05T23:16:40.885Z,11.20
2023-01-05T23:19:11.363Z,11.20
2023-01-05T23:21:40.499Z,11.20
2023-01-05T23:24:10.103Z,11.20
2023-01-05T23:26:40.200Z,11.20
2023-01-05T23:29:10.809Z,11.20
2023-01-05T23:31:42.214Z,11.20
2023-01-05T23:34:11.595Z,11.30
2023-01-05T23:36:51.309Z,11.30
2023-01-05T23:39:21.894Z,11.30
2023-01-05T23:41:51.708Z,11.30
2023-01-05T23:44:22.880Z,11.30
2023-01-05T23:46:52.229Z,11.30
2023-01-05T23:49:21.244Z,11.30
2023-01-05T23:51:51.193Z,11.40
2023-01-05T23:54:21.832Z,11.40
2023-01-05T23:56:56.900Z,11.40
2023-01-05T23:59:30.803Z,11.40
